Terminal Aerodrome Forecast
Issued by NWS Huntsville, AL

Home | Current Version | Previous Version | Text Only | Print | Product List | Glossary On
Versions: 1 2 3 4 5 6 7 8 9 10 11 12 13 14 15 16 17 18
000
FTUS44 KHUN 261124
TAFMSL
TAF
KMSL 261124Z 2612/2712 19006KT P6SM FEW250
     FM261500 18012G17KT P6SM FEW250
     FM261700 18017G22KT P6SM SCT250
     FM270000 15016G25KT P6SM BKN040
     FM270600 18017G26KT P6SM VCTS OVC020CB
     FM270900 23013G21KT P6SM OVC020=

USA.gov is the U.S. government's official web portal to all federal, state and local government web resources and services.